Time;durP1;ratioP1;P1;durP2;ratioP2;P2;SDS_P1;SDS_P2;PMS_P1;PMS_P2;Temp;Humidity;BMP_temperature;BMP_pressure;BME280_temperature;BME280_humidity;BME280_pressure;Samples;Min_cycle;Max_cycle;Signal;HPM_P1;HPM_P2
2021/05/19 00:01:37;;;;;;;15.17;12.17;;;9.30;93.40;;;;;;5132093;27;20411;-69
2021/05/19 00:04:04;;;;;;;17.97;12.47;;;9.20;93.40;;;;;;5132093;27;20323;-68
2021/05/19 00:06:30;;;;;;;16.50;11.27;;;9.20;93.40;;;;;;5131069;27;20297;-69
2021/05/19 00:08:55;;;;;;;17.90;12.47;;;9.20;93.40;;;;;;5132291;28;20304;-69
2021/05/19 00:11:21;;;;;;;15.40;12.40;;;9.20;93.40;;;;;;5132266;28;20096;-69
2021/05/19 00:13:48;;;;;;;15.57;12.90;;;9.20;93.40;;;;;;5131475;28;20070;-69
2021/05/19 00:16:14;;;;;;;15.50;11.47;;;9.20;93.40;;;;;;5131992;27;20327;-69
2021/05/19 00:18:40;;;;;;;14.93;10.60;;;9.10;93.40;;;;;;5132135;28;20324;-68
2021/05/19 00:21:06;;;;;;;18.10;12.57;;;9.10;93.50;;;;;;5131267;28;20754;-69
2021/05/19 00:23:32;;;;;;;13.37;11.50;;;9.10;93.50;;;;;;5132086;27;20055;-69
2021/05/19 00:25:59;;;;;;;15.37;12.37;;;9.00;93.50;;;;;;5131432;27;20299;-69
2021/05/19 00:28:24;;;;;;;17.07;13.43;;;9.10;93.50;;;;;;5133832;27;20300;-69
2021/05/19 00:30:55;;;;;;;15.27;12.10;;;9.10;93.50;;;;;;5136003;27;20304;-69
2021/05/19 00:33:21;;;;;;;18.20;12.37;;;9.10;93.50;;;;;;5135052;27;20043;-69
2021/05/19 00:35:46;;;;;;;15.87;11.37;;;9.00;93.90;;;;;;5135919;27;20345;-69
2021/05/19 00:38:12;;;;;;;13.87;11.73;;;9.00;93.50;;;;;;5136234;27;20266;-69
2021/05/19 00:40:38;;;;;;;16.73;12.40;;;9.00;93.50;;;;;;5135395;27;20108;-69
2021/05/19 00:43:03;;;;;;;16.40;12.13;;;9.00;93.50;;;;;;5135890;27;20058;-69
2021/05/19 00:45:29;;;;;;;15.03;12.27;;;9.00;93.50;;;;;;5135517;27;20511;-69
2021/05/19 00:47:55;;;;;;;14.67;11.37;;;8.90;93.50;;;;;;5135139;27;20043;-69
2021/05/19 00:50:24;;;;;;;13.63;12.17;;;8.80;93.50;;;;;;5135647;27;20050;-69
2021/05/19 00:52:49;;;;;;;14.13;11.63;;;8.90;93.60;;;;;;5135705;27;20056;-69
2021/05/19 00:55:15;;;;;;;14.67;11.83;;;8.80;93.60;;;;;;5135041;27;20301;-69
2021/05/19 00:57:42;;;;;;;13.50;11.40;;;8.80;93.60;;;;;;5135657;27;20046;-69
2021/05/19 01:00:11;;;;;;;14.63;12.30;;;8.80;93.60;;;;;;5135512;27;20296;-69
2021/05/19 01:02:37;;;;;;;16.57;11.73;;;8.80;93.60;;;;;;5134632;27;20334;-69
2021/05/19 01:05:18;;;;;;;14.50;11.33;;;8.70;93.60;;;;;;5135077;27;20355;-69
2021/05/19 01:10:28;;;;;;;16.43;12.33;;;8.60;93.60;;;;;;5134566;27;20047;-69
2021/05/19 01:12:54;;;;;;;15.20;12.07;;;8.60;93.70;;;;;;5135260;27;20296;-69
2021/05/19 01:15:20;;;;;;;14.77;13.17;;;8.60;93.70;;;;;;5134140;27;20055;-69
2021/05/19 01:17:47;;;;;;;14.83;12.90;;;8.50;93.70;;;;;;5135368;27;20357;-70
2021/05/19 01:20:13;;;;;;;16.10;12.53;;;8.60;93.70;;;;;;5135204;27;20051;-69
2021/05/19 01:22:39;;;;;;;15.93;12.97;;;8.50;93.70;;;;;;5134549;27;20289;-69
2021/05/19 01:25:05;;;;;;;13.50;12.10;;;8.50;93.70;;;;;;5135033;27;20319;-70
2021/05/19 01:27:31;;;;;;;14.03;12.23;;;8.50;93.80;;;;;;5134900;27;20051;-70
2021/05/19 01:29:59;;;;;;;16.67;11.60;;;8.50;93.80;;;;;;5134218;27;20289;-70
2021/05/19 01:32:25;;;;;;;15.70;12.00;;;8.40;93.70;;;;;;5135098;27;20047;-69
2021/05/19 01:34:50;;;;;;;15.93;12.07;;;8.40;93.80;;;;;;5134692;27;20289;-70
2021/05/19 01:37:17;;;;;;;13.43;11.73;;;8.30;93.80;;;;;;5134385;27;20100;-69
2021/05/19 01:39:44;;;;;;;12.53;10.97;;;8.30;93.80;;;;;;5133535;27;20487;-70
2021/05/19 01:42:10;;;;;;;14.10;11.47;;;8.30;93.90;;;;;;5135110;27;20296;-70
2021/05/19 01:44:36;;;;;;;13.00;11.17;;;8.20;93.90;;;;;;5134089;27;20400;-69
2021/05/19 01:47:03;;;;;;;13.83;11.33;;;8.10;93.90;;;;;;5134731;27;20067;-69
2021/05/19 01:49:30;;;;;;;14.00;12.47;;;8.10;94.10;;;;;;5134638;27;20288;-70
2021/05/19 01:52:04;;;;;;;15.03;12.83;;;8.10;94.10;;;;;;5133692;27;20736;-70
2021/05/19 01:54:30;;;;;;;17.23;11.43;;;8.10;94.10;;;;;;5134325;27;20717;-70
2021/05/19 01:56:56;;;;;;;18.30;12.83;;;8.00;94.10;;;;;;5134621;27;20380;-70
2021/05/19 01:59:22;;;;;;;16.10;12.67;;;8.00;94.10;;;;;;5133674;27;20300;-69
2021/05/19 02:01:48;;;;;;;15.87;11.50;;;8.00;94.20;;;;;;5134599;27;20403;-69
2021/05/19 02:04:17;;;;;;;15.83;12.70;;;8.00;94.10;;;;;;5134055;27;20336;-69
2021/05/19 02:06:55;;;;;;;15.13;12.83;;;7.90;94.20;;;;;;5133480;27;20108;-70
2021/05/19 02:09:21;;;;;;;14.70;12.60;;;7.90;94.20;;;;;;5134281;27;20716;-70
2021/05/19 02:11:48;;;;;;;18.77;13.53;;;7.90;94.20;;;;;;5133541;27;20293;-70
2021/05/19 02:14:14;;;;;;;15.90;13.37;;;7.90;94.30;;;;;;5134296;27;20391;-70
2021/05/19 02:16:40;;;;;;;18.60;13.87;;;7.90;94.40;;;;;;5134118;27;20293;-70
2021/05/19 02:19:09;;;;;;;18.80;13.33;;;7.90;94.40;;;;;;5133533;27;20350;-70
2021/05/19 02:21:48;;;;;;;16.73;14.40;;;7.90;94.40;;;;;;5133867;27;20096;-70
2021/05/19 02:24:15;;;;;;;18.73;13.87;;;7.90;94.40;;;;;;5133967;27;20430;-70
2021/05/19 02:26:42;;;;;;;18.87;14.50;;;7.90;94.40;;;;;;5132957;27;20289;-70
2021/05/19 02:29:08;;;;;;;19.17;15.20;;;8.00;94.50;;;;;;5134295;27;20309;-70
2021/05/19 02:31:34;;;;;;;17.27;15.13;;;8.00;94.50;;;;;;5133749;27;20371;-70
2021/05/19 02:34:00;;;;;;;17.83;14.90;;;8.00;94.50;;;;;;5132826;27;20388;-70
2021/05/19 02:36:26;;;;;;;19.17;14.67;;;8.00;94.50;;;;;;5133324;27;20044;-70
2021/05/19 02:38:52;;;;;;;19.23;12.77;;;8.00;94.50;;;;;;5133765;27;20399;-70
2021/05/19 02:41:18;;;;;;;14.23;12.33;;;8.00;94.50;;;;;;5132850;27;20297;-70
2021/05/19 02:43:44;;;;;;;20.47;15.00;;;8.10;94.60;;;;;;5133547;27;20320;-70
2021/05/19 02:46:12;;;;;;;15.00;13.40;;;8.10;94.50;;;;;;5133644;27;20047;-70
2021/05/19 02:48:41;;;;;;;18.70;14.10;;;8.10;94.60;;;;;;5133074;27;20297;-70
2021/05/19 02:51:08;;;;;;;17.57;13.17;;;8.10;94.60;;;;;;5133323;27;20335;-70
2021/05/19 02:53:34;;;;;;;17.67;13.80;;;8.20;94.60;;;;;;5133030;27;20665;-70
2021/05/19 02:56:00;;;;;;;19.50;14.13;;;8.20;94.60;;;;;;5133069;27;20293;-70
2021/05/19 02:58:26;;;;;;;16.00;13.40;;;8.20;94.60;;;;;;5133165;27;20494;-70
2021/05/19 03:00:52;;;;;;;15.47;13.23;;;8.20;94.70;;;;;;5132546;27;20297;-70
2021/05/19 03:03:17;;;;;;;16.87;14.30;;;8.30;94.70;;;;;;5132812;27;20873;-70
2021/05/19 03:05:43;;;;;;;17.47;14.13;;;8.30;94.70;;;;;;5132619;27;20518;-69
2021/05/19 03:08:09;;;;;;;18.67;13.67;;;8.30;94.70;;;;;;5132741;27;20104;-70
2021/05/19 03:10:35;;;;;;;16.70;13.97;;;8.30;94.70;;;;;;5133091;27;20035;-70
2021/05/19 03:13:02;;;;;;;20.40;13.90;;;8.30;94.70;;;;;;5132800;27;20223;-70
2021/05/19 03:15:28;;;;;;;17.47;13.33;;;8.40;95.10;;;;;;5132182;27;20073;-70
2021/05/19 03:17:56;;;;;;;16.80;13.67;;;8.40;94.70;;;;;;5132798;27;20297;-70
2021/05/19 03:20:22;;;;;;;18.47;15.47;;;8.40;94.70;;;;;;5132525;27;20783;-70
2021/05/19 03:22:48;;;;;;;16.03;14.33;;;8.40;94.70;;;;;;5131781;27;20781;-70
2021/05/19 03:25:14;;;;;;;20.27;15.90;;;8.40;94.70;;;;;;5132768;27;20311;-70
2021/05/19 03:27:39;;;;;;;16.60;14.83;;;8.40;94.70;;;;;;5132899;27;20122;-70
2021/05/19 03:30:10;;;;;;;16.53;14.17;;;8.40;94.70;;;;;;5131728;27;20047;-70
2021/05/19 03:32:36;;;;;;;16.70;13.40;;;8.40;94.80;;;;;;5132783;27;20391;-70
2021/05/19 03:35:04;;;;;;;18.13;14.40;;;8.30;94.70;;;;;;5132549;27;20339;-70
2021/05/19 03:37:30;;;;;;;15.13;12.80;;;8.40;94.80;;;;;;5131990;27;20375;-70
2021/05/19 03:39:57;;;;;;;16.37;14.63;;;8.30;94.80;;;;;;5132718;27;20300;-70
2021/05/19 03:42:23;;;;;;;16.43;13.60;;;8.40;94.90;;;;;;5132255;27;20300;-70
2021/05/19 03:44:48;;;;;;;19.30;14.00;;;8.40;94.90;;;;;;5131857;27;20059;-70
2021/05/19 03:47:14;;;;;;;16.07;13.60;;;8.40;94.90;;;;;;5132480;27;20135;-70
2021/05/19 03:49:40;;;;;;;17.67;14.60;;;8.40;95.30;;;;;;5132271;27;20491;-69
2021/05/19 03:52:07;;;;;;;17.37;14.70;;;8.40;94.90;;;;;;5132053;27;20439;-69
2021/05/19 03:54:34;;;;;;;18.57;14.67;;;8.40;94.90;;;;;;5132279;27;20300;-69
2021/05/19 03:57:03;;;;;;;19.83;15.47;;;8.40;94.80;;;;;;5131408;27;20652;-69
2021/05/19 03:59:28;;;;;;;16.97;14.73;;;8.50;94.90;;;;;;5132400;27;20304;-69
2021/05/19 04:01:54;;;;;;;19.33;15.43;;;8.50;94.80;;;;;;5132336;27;20301;-69
2021/05/19 04:04:20;;;;;;;21.30;16.50;;;8.50;94.80;;;;;;5134945;27;20051;-69
2021/05/19 04:06:45;;;;;;;19.93;16.90;;;8.50;94.80;;;;;;5136532;27;20043;-69
2021/05/19 04:09:12;;;;;;;18.20;15.77;;;8.50;94.70;;;;;;5136637;27;20504;-69
2021/05/19 04:11:38;;;;;;;20.53;15.40;;;8.60;94.90;;;;;;5136092;27;20099;-69
2021/05/19 04:14:04;;;;;;;18.20;16.00;;;8.60;94.80;;;;;;5136431;27;20631;-69
2021/05/19 04:16:29;;;;;;;19.30;16.20;;;8.60;94.80;;;;;;5136417;27;20303;-69
2021/05/19 04:18:55;;;;;;;18.80;16.50;;;8.60;94.70;;;;;;5135601;27;20092;-69
2021/05/19 04:21:21;;;;;;;20.60;16.70;;;8.60;94.80;;;;;;5136121;27;20301;-69
2021/05/19 04:23:47;;;;;;;21.77;15.37;;;8.70;94.80;;;;;;5136310;27;20057;-69
2021/05/19 04:26:13;;;;;;;21.13;16.50;;;8.70;94.80;;;;;;5135742;27;20051;-69
2021/05/19 04:28:38;;;;;;;19.83;15.80;;;8.70;94.80;;;;;;5136043;27;20051;-69
2021/05/19 04:31:05;;;;;;;17.20;15.37;;;8.70;94.70;;;;;;5136108;27;20289;-69
2021/05/19 04:33:30;;;;;;;20.43;15.67;;;8.70;94.70;;;;;;5135241;27;20074;-69
2021/05/19 04:35:56;;;;;;;17.43;15.50;;;8.70;94.70;;;;;;5135923;27;20765;-69
2021/05/19 04:38:22;;;;;;;17.97;16.17;;;8.70;94.70;;;;;;5136100;27;20300;-69
2021/05/19 04:40:48;;;;;;;16.77;13.90;;;8.60;94.70;;;;;;5135211;27;20054;-69
2021/05/19 04:43:14;;;;;;;18.73;14.87;;;8.70;94.70;;;;;;5135538;27;20789;-69
2021/05/19 04:45:40;;;;;;;18.07;15.60;;;8.70;94.70;;;;;;5136151;27;20074;-69
2021/05/19 04:48:06;;;;;;;19.43;15.77;;;8.70;94.70;;;;;;5135408;27;20328;-69
2021/05/19 04:50:33;;;;;;;20.97;16.37;;;8.70;94.70;;;;;;5135492;27;20051;-69
2021/05/19 04:52:59;;;;;;;17.80;15.93;;;8.80;94.70;;;;;;5135718;27;20043;-69
2021/05/19 04:55:25;;;;;;;18.97;16.77;;;8.80;94.70;;;;;;5134729;27;20301;-69
2021/05/19 04:57:50;;;;;;;20.50;15.43;;;8.80;94.60;;;;;;5135806;27;20508;-69
2021/05/19 05:00:17;;;;;;;19.67;15.93;;;8.80;94.60;;;;;;5134588;27;20054;-69
2021/05/19 05:02:44;;;;;;;21.20;17.70;;;8.80;94.60;;;;;;5134216;27;20042;-69
2021/05/19 05:05:10;;;;;;;19.00;15.87;;;8.80;94.60;;;;;;5135337;27;20300;-69
2021/05/19 05:07:36;;;;;;;21.67;17.07;;;8.90;94.70;;;;;;5134842;27;20445;-69
2021/05/19 05:10:05;;;;;;;19.63;16.70;;;9.00;94.70;;;;;;5135338;27;20297;-69
2021/05/19 05:12:31;;;;;;;24.13;18.07;;;9.00;94.70;;;;;;5135182;27;20637;-69
2021/05/19 05:14:56;;;;;;;16.37;14.57;;;9.10;94.70;;;;;;5134429;27;20296;-68
2021/05/19 05:17:22;;;;;;;18.27;14.83;;;9.20;94.70;;;;;;5135209;27;20162;-69
2021/05/19 05:19:48;;;;;;;19.10;17.07;;;9.30;95.10;;;;;;5134765;27;20484;-69
2021/05/19 05:22:14;;;;;;;20.37;16.47;;;9.60;95.10;;;;;;5134430;27;20346;-67
2021/05/19 05:24:39;;;;;;;15.83;14.00;;;9.80;94.50;;;;;;5135002;27;20491;-69
2021/05/19 05:27:05;;;;;;;18.67;15.47;;;9.80;94.20;;;;;;5134698;27;20043;-69
2021/05/19 05:29:31;;;;;;;18.77;15.70;;;9.80;94.20;;;;;;5134024;27;20100;-69
2021/05/19 05:31:57;;;;;;;21.03;16.47;;;9.80;94.20;;;;;;5134956;27;20047;-69
2021/05/19 05:34:23;;;;;;;18.40;15.60;;;9.90;94.10;;;;;;5134891;27;20329;-69
2021/05/19 05:36:49;;;;;;;18.23;15.13;;;9.80;94.10;;;;;;5133620;27;20047;-69
2021/05/19 05:39:18;;;;;;;18.70;15.27;;;9.80;94.00;;;;;;5134427;27;20047;-69
2021/05/19 05:41:44;;;;;;;19.03;15.13;;;9.80;93.90;;;;;;5134527;27;20091;-69
2021/05/19 05:44:10;;;;;;;18.50;15.20;;;9.80;93.90;;;;;;5133829;27;20051;-69
2021/05/19 05:46:35;;;;;;;18.33;14.13;;;9.80;93.90;;;;;;5134507;27;20403;-69
2021/05/19 05:49:01;;;;;;;18.27;15.57;;;9.80;93.90;;;;;;5134475;27;20054;-69
2021/05/19 05:51:27;;;;;;;18.30;16.37;;;9.80;93.90;;;;;;5133688;27;20126;-69
2021/05/19 05:53:53;;;;;;;22.00;17.63;;;9.80;93.90;;;;;;5134294;27;20050;-69
2021/05/19 05:56:20;;;;;;;17.13;14.87;;;9.90;94.10;;;;;;5133975;27;20058;-69
2021/05/19 05:58:45;;;;;;;18.27;16.40;;;9.80;94.10;;;;;;5133523;27;20050;-69
2021/05/19 06:01:11;;;;;;;19.67;16.10;;;9.90;94.10;;;;;;5134673;27;20047;-69
2021/05/19 06:03:37;;;;;;;22.97;18.17;;;9.90;94.00;;;;;;5133088;27;20066;-69
2021/05/19 06:06:03;;;;;;;20.87;18.77;;;9.90;94.00;;;;;;5133738;27;20132;-69
2021/05/19 06:08:29;;;;;;;16.33;13.50;;;10.00;94.10;;;;;;5134185;27;20078;-69
2021/05/19 06:10:56;;;;;;;18.63;16.57;;;10.00;94.20;;;;;;5133216;27;20046;-70
2021/05/19 06:13:22;;;;;;;19.17;16.00;;;10.00;94.20;;;;;;5134014;27;20049;-69
2021/05/19 06:15:48;;;;;;;20.60;16.83;;;10.10;94.10;;;;;;5133884;27;20210;-70
2021/05/19 06:18:13;;;;;;;20.60;16.57;;;10.20;94.10;;;;;;5133100;27;20511;-69
2021/05/19 06:20:40;;;;;;;19.03;15.03;;;10.20;94.00;;;;;;5133914;27;20407;-69
2021/05/19 06:23:05;;;;;;;21.00;16.50;;;10.20;93.90;;;;;;5133877;27;20043;-69
2021/05/19 06:25:31;;;;;;;19.30;17.07;;;10.10;93.90;;;;;;5132200;27;20039;-68
2021/05/19 06:27:57;;;;;;;20.20;16.77;;;10.10;94.00;;;;;;5133667;27;20047;-67
2021/05/19 06:30:23;;;;;;;20.20;16.30;;;10.10;94.00;;;;;;5133598;27;20047;-68
2021/05/19 06:32:49;;;;;;;21.17;18.33;;;10.20;94.00;;;;;;5132946;27;20063;-68
2021/05/19 06:35:15;;;;;;;19.30;17.23;;;10.20;94.10;;;;;;5133496;27;20559;-69
2021/05/19 06:37:41;;;;;;;19.40;17.37;;;10.30;94.10;;;;;;5133094;27;20129;-70
2021/05/19 06:40:08;;;;;;;22.10;16.37;;;10.30;94.00;;;;;;5132713;27;20099;-68
2021/05/19 06:42:34;;;;;;;22.47;19.03;;;10.40;93.90;;;;;;5133002;27;20484;-68
2021/05/19 06:44:59;;;;;;;22.67;18.17;;;10.40;94.00;;;;;;5133022;27;20180;-67
2021/05/19 06:47:25;;;;;;;23.47;18.47;;;10.50;94.10;;;;;;5132266;27;20067;-68
2021/05/19 06:49:54;;;;;;;22.97;17.33;;;10.50;94.10;;;;;;5132857;27;20046;-68
2021/05/19 06:52:21;;;;;;;21.40;18.80;;;10.60;94.10;;;;;;5133079;27;20071;-69
2021/05/19 06:54:47;;;;;;;22.20;18.03;;;10.70;94.10;;;;;;5132026;27;20517;-69
2021/05/19 06:57:13;;;;;;;22.10;17.40;;;10.80;94.00;;;;;;5133012;27;20050;-69
2021/05/19 06:59:39;;;;;;;23.53;19.80;;;10.80;93.90;;;;;;5132855;27;20487;-69
2021/05/19 07:02:04;;;;;;;21.50;18.53;;;10.90;93.90;;;;;;5131996;27;20060;-70
2021/05/19 07:04:30;;;;;;;19.33;17.30;;;10.90;93.80;;;;;;5132760;27;20058;-70
2021/05/19 07:06:58;;;;;;;23.23;17.90;;;10.90;93.70;;;;;;5131700;27;20043;-69
2021/05/19 07:09:25;;;;;;;22.67;17.57;;;10.90;93.70;;;;;;5131531;27;20534;-70
2021/05/19 07:11:52;;;;;;;24.47;18.10;;;11.00;93.60;;;;;;5132684;27;20031;-70
2021/05/19 07:14:18;;;;;;;22.47;18.20;;;10.90;93.50;;;;;;5132083;27;20050;-69
2021/05/19 07:16:53;;;;;;;21.37;18.13;;;10.90;93.50;;;;;;5132599;27;20039;-69
2021/05/19 07:19:21;;;;;;;21.57;18.87;;;10.90;93.50;;;;;;5129992;27;20051;-69
2021/05/19 07:21:48;;;;;;;24.77;17.90;;;11.00;93.50;;;;;;5129700;27;20129;-69
2021/05/19 07:24:14;;;;;;;22.07;18.17;;;11.00;93.40;;;;;;5131865;27;20054;-70
2021/05/19 07:26:42;;;;;;;24.50;19.33;;;10.90;93.40;;;;;;5132503;27;20511;-70
2021/05/19 07:29:10;;;;;;;20.23;18.13;;;10.90;93.40;;;;;;5131859;27;20115;-69
2021/05/19 07:31:36;;;;;;;23.43;19.23;;;10.90;93.40;;;;;;5129611;27;20039;-68
2021/05/19 07:34:02;;;;;;;25.30;20.57;;;10.90;93.40;;;;;;5132003;27;20047;-69
2021/05/19 07:36:28;;;;;;;25.33;21.30;;;10.90;93.50;;;;;;5131455;27;20246;-68
2021/05/19 07:38:55;;;;;;;24.77;19.57;;;11.00;93.60;;;;;;5131701;27;20050;-69
2021/05/19 07:41:22;;;;;;;24.70;19.33;;;11.00;93.50;;;;;;5132569;27;20042;-69
2021/05/19 07:43:47;;;;;;;21.73;19.50;;;11.10;93.50;;;;;;5131574;27;20134;-70
2021/05/19 07:46:13;;;;;;;31.47;21.77;;;11.10;93.40;;;;;;5132271;27;20492;-70
2021/05/19 07:48:39;;;;;;;28.17;22.80;;;11.20;93.50;;;;;;5132707;27;20507;-70
2021/05/19 07:51:05;;;;;;;25.17;20.70;;;11.20;93.60;;;;;;5131170;27;20046;-70
2021/05/19 07:53:31;;;;;;;25.10;20.67;;;11.30;93.60;;;;;;5132302;27;20054;-69
2021/05/19 07:56:02;;;;;;;27.20;21.23;;;11.30;93.50;;;;;;5131741;28;20508;-69
2021/05/19 07:58:37;;;;;;;25.10;21.10;;;11.30;93.40;;;;;;5131581;27;20043;-68
2021/05/19 08:03:34;;;;;;;22.80;19.80;;;11.50;93.60;;;;;;5131209;28;19927;-69
2021/05/19 08:06:00;;;;;;;27.37;22.70;;;11.70;93.70;;;;;;5131680;27;20051;-69
2021/05/19 08:08:25;;;;;;;29.50;20.17;;;12.00;93.60;;;;;;5132074;27;20488;-70
2021/05/19 08:10:51;;;;;;;23.20;20.40;;;12.30;93.90;;;;;;5131067;28;20076;-70
2021/05/19 08:13:18;;;;;;;27.00;21.77;;;12.70;93.90;;;;;;5132147;27;20047;-69
2021/05/19 08:15:44;;;;;;;28.13;20.47;;;13.00;93.40;;;;;;5131656;27;20495;-70
2021/05/19 08:18:11;;;;;;;28.60;20.23;;;13.10;93.00;;;;;;5131497;27;20104;-70
2021/05/19 08:20:38;;;;;;;22.10;18.73;;;13.10;92.80;;;;;;5131935;27;20078;-70
2021/05/19 08:23:05;;;;;;;25.50;20.67;;;13.20;92.70;;;;;;5131746;27;20071;-70
2021/05/19 08:25:30;;;;;;;24.10;20.90;;;13.20;92.50;;;;;;5130820;27;20050;-72
2021/05/19 08:27:57;;;;;;;24.83;19.23;;;13.30;92.50;;;;;;5132134;27;20066;-69
2021/05/19 08:30:23;;;;;;;22.63;19.17;;;13.30;92.00;;;;;;5131877;28;20051;-71
2021/05/19 08:32:51;;;;;;;21.63;16.50;;;13.30;91.70;;;;;;5131128;27;20050;-71
2021/05/19 08:35:17;;;;;;;20.57;17.90;;;13.40;91.60;;;;;;5131520;27;20055;-70
2021/05/19 08:37:42;;;;;;;19.07;16.87;;;13.70;91.60;;;;;;5131895;27;20039;-71
2021/05/19 08:40:09;;;;;;;20.30;17.47;;;13.90;91.30;;;;;;5131247;28;20047;-70
2021/05/19 08:42:36;;;;;;;17.53;15.03;;;14.00;90.90;;;;;;5131649;27;20456;-70
2021/05/19 08:45:04;;;;;;;17.97;15.70;;;14.10;90.80;;;;;;5131813;27;20407;-70
2021/05/19 08:47:30;;;;;;;15.73;13.83;;;14.20;90.70;;;;;;5131133;27;20043;-70
2021/05/19 08:49:55;;;;;;;15.27;13.70;;;14.60;90.80;;;;;;5134277;27;20544;-70
2021/05/19 08:52:21;;;;;;;20.17;13.83;;;14.90;90.30;;;;;;5134918;27;20364;-71
2021/05/19 08:54:49;;;;;;;15.33;13.73;;;15.00;89.30;;;;;;5135483;27;20054;-71
2021/05/19 08:57:17;;;;;;;16.50;13.77;;;14.90;88.50;;;;;;5135484;27;20047;-70
2021/05/19 08:59:43;;;;;;;17.10;12.97;;;14.90;88.90;;;;;;5134029;27;20043;-71
2021/05/19 09:02:11;;;;;;;18.53;13.57;;;15.00;87.40;;;;;;5135265;27;20047;-71
2021/05/19 09:04:37;;;;;;;18.37;12.93;;;15.10;87.40;;;;;;5134314;27;20116;-70
2021/05/19 09:07:03;;;;;;;13.87;11.37;;;15.40;87.20;;;;;;5134208;27;20442;-71
2021/05/19 09:09:31;;;;;;;12.67;11.20;;;15.70;86.60;;;;;;5130972;27;20049;-71
2021/05/19 09:12:01;;;;;;;12.57;10.97;;;16.00;85.60;;;;;;5135080;27;20051;-70
2021/05/19 09:14:34;;;;;;;14.33;10.37;;;16.20;84.50;;;;;;5129684;27;20115;-69
2021/05/19 09:17:25;;;;;;;12.80;9.63;;;16.10;83.30;;;;;;5134748;27;20111;-68
2021/05/19 09:19:58;;;;;;;16.27;10.52;;;16.10;80.60;;;;;;5134990;27;20059;-70
2021/05/19 09:22:29;;;;;;;11.53;10.40;;;16.00;81.90;;;;;;5134014;27;20047;-69
2021/05/19 09:24:55;;;;;;;13.07;10.45;;;15.90;80.60;;;;;;5134474;27;20471;-68
2021/05/19 09:27:22;;;;;;;12.20;9.97;;;15.70;79.60;;;;;;5134888;27;20083;-68
2021/05/19 09:29:52;;;;;;;11.40;9.60;;;15.60;78.30;;;;;;5134249;27;20124;-69
2021/05/19 09:32:20;;;;;;;13.20;10.63;;;15.50;77.80;;;;;;5134906;27;20074;-67
2021/05/19 09:34:49;;;;;;;11.53;9.90;;;15.40;78.00;;;;;;5133932;27;20096;-68
2021/05/19 09:37:21;;;;;;;15.27;11.30;;;15.30;78.60;;;;;;5134530;27;20074;-71
2021/05/19 09:39:53;;;;;;;10.00;9.00;;;15.10;78.10;;;;;;5134630;27;20043;-69
2021/05/19 09:42:20;;;;;;;12.20;11.07;;;15.00;77.90;;;;;;5133246;27;20058;-70
2021/05/19 09:44:49;;;;;;;15.03;12.50;;;14.80;78.60;;;;;;5134572;27;20166;-69
2021/05/19 09:47:35;;;;;;;15.13;12.73;;;14.60;79.20;;;;;;5134391;27;20075;-70
2021/05/19 09:50:01;;;;;;;17.73;14.23;;;14.30;81.30;;;;;;5133768;27;20100;-70
2021/05/19 09:52:27;;;;;;;16.53;13.70;;;14.10;82.60;;;;;;5134147;27;20043;-67
2021/05/19 09:55:00;;;;;;;17.37;15.10;;;13.90;83.10;;;;;;5134388;27;20047;-67
2021/05/19 09:57:27;;;;;;;21.40;15.90;;;13.80;83.60;;;;;;5133951;27;20047;-69
2021/05/19 09:59:53;;;;;;;25.63;17.40;;;13.40;84.30;;;;;;5133607;27;20051;-69
2021/05/19 10:02:22;;;;;;;19.23;16.20;;;13.00;85.80;;;;;;5133808;27;20055;-68
2021/05/19 10:04:51;;;;;;;19.47;16.30;;;12.70;87.10;;;;;;5133403;27;20138;-68
2021/05/19 10:07:19;;;;;;;17.43;14.27;;;12.50;88.30;;;;;;5134300;27;20043;-69
2021/05/19 10:09:44;;;;;;;16.80;15.03;;;12.50;88.90;;;;;;5133265;27;20040;-69
2021/05/19 10:12:12;;;;;;;17.83;14.73;;;12.50;89.30;;;;;;5134451;27;20047;-69
2021/05/19 10:14:40;;;;;;;13.40;10.77;;;12.50;89.60;;;;;;5134169;27;20145;-73
2021/05/19 10:17:09;;;;;;;12.60;9.93;;;12.50;89.00;;;;;;5133592;27;20099;-71
2021/05/19 10:20:01;;;;;;;14.27;10.57;;;12.50;88.60;;;;;;5134109;27;20073;-69
2021/05/19 10:22:28;;;;;;;8.27;7.28;;;12.40;88.80;;;;;;5133261;27;20054;-67
2021/05/19 10:25:06;;;;;;;9.40;7.70;;;12.30;89.00;;;;;;5132949;27;20051;-68
2021/05/19 10:27:48;;;;;;;7.93;7.13;;;12.20;88.80;;;;;;5133737;27;20179;-68
2021/05/19 10:30:34;;;;;;;9.65;8.63;;;12.20;89.00;;;;;;5133920;27;20142;-67
2021/05/19 10:33:02;;;;;;;8.53;6.60;;;12.30;90.00;;;;;;5132787;27;20051;-67
2021/05/19 10:35:36;;;;;;;5.63;3.90;;;12.60;89.90;;;;;;5133116;27;20377;-67
2021/05/19 10:38:19;;;;;;;4.87;4.30;;;12.70;88.80;;;;;;5132654;27;20388;-68
2021/05/19 10:40:56;;;;;;;4.90;3.13;;;12.80;89.00;;;;;;5133452;27;20456;-67
2021/05/19 10:43:42;;;;;;;3.37;2.07;;;13.00;88.50;;;;;;5133369;27;20042;-68
2021/05/19 10:46:07;;;;;;;2.83;1.97;;;13.10;87.30;;;;;;5132469;27;20111;-68
2021/05/19 10:48:35;;;;;;;2.73;1.97;;;13.10;87.00;;;;;;5133332;27;20047;-67
2021/05/19 10:51:34;;;;;;;3.23;2.57;;;13.00;86.40;;;;;;5133302;27;20050;-67
2021/05/19 11:00:27;;;;;;;3.77;2.80;;;12.90;86.00;;;;;;5131368;27;20062;-67
2021/05/19 11:02:53;;;;;;;4.37;2.47;;;12.90;85.90;;;;;;5132921;27;20129;-67
2021/05/19 11:05:24;;;;;;;4.13;2.63;;;12.80;86.50;;;;;;5132737;27;20145;-67
2021/05/19 11:08:11;;;;;;;2.53;1.90;;;12.60;87.00;;;;;;5132223;27;20047;-68
2021/05/19 11:10:47;;;;;;;2.93;2.20;;;12.50;87.30;;;;;;5132835;27;20047;-68
2021/05/19 11:13:14;;;;;;;3.73;2.33;;;12.50;87.60;;;;;;5132238;27;20137;-69
2021/05/19 11:16:04;;;;;;;4.37;3.43;;;12.50;87.50;;;;;;5133017;27;20398;-69
2021/05/19 11:21:17;;;;;;;6.30;3.20;;;12.10;88.50;;;;;;5132227;27;20047;-69
2021/05/19 11:24:09;;;;;;;3.23;2.93;;;12.00;89.60;;;;;;5132585;27;20488;-70
2021/05/19 11:26:41;;;;;;;4.27;3.07;;;12.00;90.00;;;;;;5132923;27;20172;-70
2021/05/19 11:29:10;;;;;;;4.50;2.50;;;11.90;90.20;;;;;;5131916;27;20499;-70
2021/05/19 11:31:43;;;;;;;3.43;2.23;;;11.80;90.40;;;;;;5132295;27;20420;-70
2021/05/19 11:34:10;;;;;;;2.07;1.87;;;11.90;90.70;;;;;;5132299;27;20611;-70
2021/05/19 11:36:44;;;;;;;2.60;1.50;;;11.90;90.70;;;;;;5132258;27;20047;-70
2021/05/19 11:39:23;;;;;;;2.03;1.80;;;12.00;90.60;;;;;;5132747;27;20164;-69
2021/05/19 11:41:51;;;;;;;3.17;1.50;;;12.10;90.40;;;;;;5131688;27;20447;-68
2021/05/19 11:44:34;;;;;;;2.30;1.93;;;12.10;90.70;;;;;;5132420;27;20047;-68
2021/05/19 11:47:00;;;;;;;4.43;2.40;;;12.20;90.40;;;;;;5132568;27;20446;-68
2021/05/19 11:49:27;;;;;;;4.03;2.33;;;12.30;90.70;;;;;;5131679;27;20054;-68
2021/05/19 11:51:53;;;;;;;2.93;2.63;;;12.40;90.10;;;;;;5132028;27;20061;-67
2021/05/19 11:54:21;;;;;;;9.53;8.67;;;12.50;90.00;;;;;;5132362;27;20059;-69
2021/05/19 11:57:00;;;;;;;2.07;1.87;;;12.40;90.00;;;;;;5131182;28;20067;-68
2021/05/19 11:59:35;;;;;;;2.70;2.10;;;12.50;90.00;;;;;;5132502;28;20043;-68
2021/05/19 12:02:13;;;;;;;3.03;2.43;;;12.50;89.90;;;;;;5132077;28;20487;-67
2021/05/19 12:04:41;;;;;;;146.30;17.13;;;12.50;90.00;;;;;;5132214;27;20057;-67
2021/05/19 12:07:08;;;;;;;6.20;2.90;;;12.50;90.10;;;;;;5132238;27;20584;-68
2021/05/19 12:09:39;;;;;;;3.40;2.63;;;12.50;90.20;;;;;;5131126;28;20381;-67
2021/05/19 12:12:16;;;;;;;3.40;2.92;;;12.50;90.20;;;;;;5132331;28;20099;-67
2021/05/19 12:14:54;;;;;;;4.90;2.50;;;12.60;90.30;;;;;;5130632;28;20055;-68
2021/05/19 12:17:24;;;;;;;7.60;3.53;;;12.60;90.30;;;;;;5131112;28;20055;-68
2021/05/19 12:19:49;;;;;;;6.03;4.40;;;12.50;90.30;;;;;;5131926;28;20044;-68
2021/05/19 12:22:21;;;;;;;8.87;7.97;;;12.50;90.40;;;;;;5131754;28;20039;-68
2021/05/19 12:24:48;;;;;;;7.17;6.53;;;12.40;90.30;;;;;;5133667;27;20557;-68
2021/05/19 12:27:21;;;;;;;10.20;7.40;;;12.30;90.20;;;;;;5136082;27;20094;-68
2021/05/19 12:29:51;;;;;;;7.37;6.00;;;12.20;90.30;;;;;;5136015;27;20104;-67
2021/05/19 12:32:24;;;;;;;7.03;6.20;;;12.10;90.40;;;;;;5135010;27;20395;-67
2021/05/19 12:35:07;;;;;;;7.10;6.40;;;12.10;90.60;;;;;;5136014;27;20407;-67
2021/05/19 12:38:06;;;;;;;9.80;8.90;;;12.00;90.70;;;;;;5134978;27;20051;-67
2021/05/19 12:40:32;;;;;;;13.57;9.80;;;11.90;90.90;;;;;;5135723;27;20124;-67
2021/05/19 12:43:04;;;;;;;9.20;8.10;;;11.90;91.00;;;;;;5135865;27;20152;-67
2021/05/19 12:45:38;;;;;;;10.55;9.20;;;11.90;91.20;;;;;;5134948;27;20043;-67
2021/05/19 12:48:10;;;;;;;13.40;7.50;;;11.80;91.20;;;;;;5136007;27;20043;-67
2021/05/19 12:50:43;;;;;;;9.73;6.30;;;11.80;91.20;;;;;;5135730;27;20497;-68
2021/05/19 12:53:27;;;;;;;6.97;5.33;;;11.70;91.10;;;;;;5135552;27;20058;-67
2021/05/19 12:56:03;;;;;;;11.13;6.33;;;11.70;91.10;;;;;;5115259;28;20052;-68